createdAt,value
2023-01-30T00:01:23.221Z,101990.09
2023-01-30T00:04:16.815Z,101993.41
2023-01-30T00:07:06.406Z,101989.31
2023-01-30T00:09:55.730Z,101990.66
2023-01-30T00:12:44.942Z,101984.88
2023-01-30T00:15:34.643Z,101980.72
2023-01-30T00:18:25.264Z,101995.97
2023-01-30T00:21:16.153Z,101998.66
2023-01-30T00:24:05.855Z,101981.16
2023-01-30T00:26:55.239Z,101989.34
2023-01-30T00:29:57.592Z,101994.25
2023-01-30T00:32:56.655Z,102002.91
2023-01-30T00:35:48.942Z,101994.25
2023-01-30T00:38:38.172Z,102006.06
2023-01-30T00:41:49.577Z,102009.59
2023-01-30T00:44:56.765Z,102006.34
2023-01-30T00:47:46.517Z,101990.44
2023-01-30T00:50:43.645Z,101989.97
2023-01-30T00:53:35.937Z,101997.59
2023-01-30T00:56:25.147Z,102000.00
2023-01-30T00:59:14.420Z,101997.25
2023-01-30T01:02:03.699Z,102000.50
2023-01-30T01:04:52.845Z,101992.59
2023-01-30T01:07:42.144Z,101999.38
2023-01-30T01:10:33.501Z,102004.59
2023-01-30T01:13:23.257Z,102007.91
2023-01-30T01:16:12.532Z,102014.78
2023-01-30T01:19:02.156Z,102014.47
2023-01-30T01:21:51.763Z,102009.31
2023-01-30T01:24:41.056Z,102009.88
2023-01-30T01:27:32.238Z,102019.47
2023-01-30T01:30:21.695Z,102025.38
2023-01-30T01:33:11.127Z,102014.53
2023-01-30T01:36:00.437Z,102009.38
2023-01-30T01:38:49.632Z,102015.06
2023-01-30T01:41:37.816Z,102015.03
2023-01-30T01:44:28.409Z,102016.31
2023-01-30T01:47:17.700Z,102027.19
2023-01-30T01:50:08.314Z,102024.66
2023-01-30T01:52:59.472Z,102030.63
2023-01-30T01:55:53.343Z,102028.94
2023-01-30T01:58:47.347Z,102021.38
2023-01-30T02:01:38.015Z,102041.47
2023-01-30T02:04:43.119Z,102029.50
2023-01-30T02:07:39.308Z,102037.38
2023-01-30T02:10:35.993Z,102035.38
2023-01-30T02:13:26.031Z,102029.91
2023-01-30T02:16:17.557Z,102047.56
2023-01-30T02:19:25.936Z,102050.34
2023-01-30T02:23:04.812Z,102057.97
2023-01-30T02:26:44.873Z,102056.09
2023-01-30T02:30:00.618Z,102050.03
2023-01-30T02:33:07.136Z,102054.44
2023-01-30T02:36:10.303Z,102038.78
2023-01-30T02:39:28.135Z,102034.78
2023-01-30T02:42:32.593Z,102050.84
2023-01-30T02:45:33.998Z,102035.91
2023-01-30T02:48:31.894Z,102050.41
2023-01-30T02:51:27.219Z,102043.06
2023-01-30T02:54:17.222Z,102052.66
2023-01-30T02:57:22.004Z,102054.88
2023-01-30T03:00:17.686Z,102056.47
2023-01-30T03:03:16.451Z,102057.56
2023-01-30T03:06:44.617Z,102062.47
2023-01-30T03:09:50.535Z,102067.66
2023-01-30T03:12:50.152Z,102080.78
2023-01-30T03:15:44.440Z,102075.00
2023-01-30T03:18:33.860Z,102075.53
2023-01-30T03:21:24.465Z,102074.50
2023-01-30T03:24:15.964Z,102087.53
2023-01-30T03:27:10.015Z,102084.28
2023-01-30T03:29:59.500Z,102094.66
2023-01-30T03:32:48.829Z,102097.91
2023-01-30T03:35:38.247Z,102080.72
2023-01-30T03:38:29.523Z,102095.16
2023-01-30T03:41:19.032Z,102096.31
2023-01-30T03:44:08.254Z,102097.63
2023-01-30T03:46:57.563Z,102092.75
2023-01-30T03:49:47.253Z,102105.78
2023-01-30T03:52:37.165Z,102090.19
2023-01-30T03:55:31.700Z,102100.63
2023-01-30T03:58:20.964Z,102097.06
2023-01-30T04:01:10.357Z,102101.59
2023-01-30T04:04:00.045Z,102125.63
2023-01-30T04:06:49.329Z,102128.09
2023-01-30T04:09:38.965Z,102124.03
2023-01-30T04:12:30.005Z,102128.41
2023-01-30T04:15:21.810Z,102128.63
2023-01-30T04:18:29.640Z,102132.16
2023-01-30T04:21:23.034Z,102127.19
2023-01-30T04:24:12.737Z,102112.47
2023-01-30T04:27:02.189Z,102121.28
2023-01-30T04:29:53.931Z,102111.94
2023-01-30T04:32:43.696Z,102090.06
2023-01-30T04:35:33.742Z,102103.41
2023-01-30T04:38:24.339Z,102099.56
2023-01-30T04:41:14.916Z,102097.06
2023-01-30T04:44:05.996Z,102088.91
2023-01-30T04:47:15.217Z,102101.47
2023-01-30T04:50:04.992Z,102107.72
2023-01-30T04:52:54.449Z,102114.78
2023-01-30T04:55:43.777Z,102111.75
2023-01-30T04:58:33.342Z,102113.91
2023-01-30T05:01:27.104Z,102117.47
2023-01-30T05:04:17.977Z,102103.91
2023-01-30T05:07:07.437Z,102103.84
2023-01-30T05:09:56.583Z,102114.78
2023-01-30T05:12:46.199Z,102121.00
2023-01-30T05:15:36.066Z,102137.94
2023-01-30T05:18:25.391Z,102134.94
2023-01-30T05:21:18.522Z,102132.97
2023-01-30T05:24:08.317Z,102145.56
2023-01-30T05:26:57.519Z,102144.53
2023-01-30T05:29:46.693Z,102148.59
2023-01-30T05:32:35.851Z,102136.94
2023-01-30T05:35:25.083Z,102136.41
2023-01-30T05:38:15.707Z,102126.31
2023-01-30T05:41:08.002Z,102112.88
2023-01-30T05:43:57.284Z,102125.94
2023-01-30T05:46:46.522Z,102131.34
2023-01-30T05:49:35.853Z,102129.88
2023-01-30T05:52:25.051Z,102134.25
2023-01-30T05:55:16.839Z,102144.28
2023-01-30T05:58:06.467Z,102148.28
2023-01-30T06:00:56.363Z,102144.69
2023-01-30T06:03:45.612Z,102147.28
2023-01-30T06:06:34.953Z,102141.25
2023-01-30T06:09:24.164Z,102143.34
2023-01-30T06:12:14.749Z,102140.53
2023-01-30T06:15:04.037Z,102158.56
2023-01-30T06:17:53.192Z,102154.75
2023-01-30T06:20:42.391Z,102153.94
2023-01-30T06:23:32.271Z,102151.03
2023-01-30T06:26:21.567Z,102156.72
2023-01-30T06:29:12.382Z,102138.06
2023-01-30T06:32:01.751Z,102167.63
2023-01-30T06:34:50.987Z,102172.78
2023-01-30T06:37:40.663Z,102164.25
2023-01-30T06:40:30.010Z,102171.00
2023-01-30T06:43:19.601Z,102171.28
2023-01-30T06:46:10.356Z,102172.06
2023-01-30T06:48:59.603Z,102177.34
2023-01-30T06:51:48.834Z,102170.34
2023-01-30T06:54:38.071Z,102173.06
2023-01-30T06:57:27.558Z,102175.22
2023-01-30T07:00:19.791Z,102170.94
2023-01-30T07:03:12.915Z,102156.44
2023-01-30T07:06:02.150Z,102179.03
2023-01-30T07:08:51.799Z,102167.47
2023-01-30T07:11:41.098Z,102186.81
2023-01-30T07:14:30.440Z,102140.09
2023-01-30T07:17:19.993Z,102163.31
2023-01-30T07:20:12.851Z,102195.72
2023-01-30T07:23:02.312Z,102206.78
2023-01-30T07:25:51.734Z,102208.97
2023-01-30T07:28:41.081Z,102221.03
2023-01-30T07:31:30.420Z,102223.75
2023-01-30T07:34:19.880Z,102218.78
2023-01-30T07:37:10.754Z,102211.03
2023-01-30T07:40:00.005Z,102220.94
2023-01-30T07:42:59.226Z,102235.44
2023-01-30T07:45:50.341Z,102242.53
2023-01-30T07:48:39.693Z,102234.09
2023-01-30T07:51:29.181Z,102250.75
2023-01-30T07:54:20.099Z,102248.69
2023-01-30T07:57:09.371Z,102249.72
2023-01-30T07:59:58.694Z,102252.72
2023-01-30T08:02:47.976Z,102264.75
2023-01-30T08:05:37.211Z,102249.84
2023-01-30T08:08:26.519Z,102247.59
2023-01-30T08:11:18.443Z,102250.88
2023-01-30T08:14:07.895Z,102251.19
2023-01-30T08:16:58.284Z,102252.22
2023-01-30T08:19:48.401Z,102259.59
2023-01-30T08:22:37.987Z,102247.75
2023-01-30T08:25:27.574Z,102271.91
2023-01-30T08:28:18.618Z,102226.69
2023-01-30T08:31:13.470Z,102267.75
2023-01-30T08:34:02.856Z,102266.84
2023-01-30T08:36:52.249Z,102269.13
2023-01-30T08:39:41.557Z,102273.41
2023-01-30T08:42:31.213Z,102266.06
2023-01-30T08:45:21.858Z,102260.97
2023-01-30T08:48:11.925Z,102260.72
2023-01-30T08:51:01.200Z,102261.66
2023-01-30T08:53:50.448Z,102270.91
2023-01-30T08:56:39.809Z,102267.66
2023-01-30T08:59:29.012Z,102273.25
2023-01-30T09:02:19.818Z,102275.97
2023-01-30T09:05:11.097Z,102290.91
2023-01-30T09:08:00.348Z,102285.22
2023-01-30T09:10:49.631Z,102285.53
2023-01-30T09:13:43.416Z,102286.69
2023-01-30T09:16:32.668Z,102304.06
2023-01-30T09:19:23.522Z,102305.50
2023-01-30T09:22:12.709Z,102311.41
2023-01-30T09:25:01.961Z,102303.84
2023-01-30T09:27:51.977Z,102308.69
2023-01-30T09:30:41.598Z,102311.41
2023-01-30T09:33:31.287Z,102319.66
2023-01-30T09:36:21.975Z,102310.56
2023-01-30T09:39:12.527Z,102320.19
2023-01-30T09:42:37.104Z,102317.06
2023-01-30T09:45:57.204Z,102322.94
2023-01-30T09:48:59.274Z,102323.78
2023-01-30T09:52:02.575Z,102335.09
2023-01-30T09:54:54.948Z,102335.78
2023-01-30T09:57:45.283Z,102344.59
2023-01-30T10:00:39.468Z,102350.03
2023-01-30T10:03:35.287Z,102348.44
2023-01-30T10:06:24.708Z,102351.75
2023-01-30T10:09:25.461Z,102355.41
2023-01-30T10:12:36.649Z,102365.75
2023-01-30T10:15:44.783Z,102351.94
2023-01-30T10:19:12.453Z,102371.66
2023-01-30T10:22:13.024Z,102370.25
2023-01-30T10:25:25.323Z,102366.94
2023-01-30T10:28:23.764Z,102358.25
2023-01-30T10:31:17.791Z,102366.25
2023-01-30T10:34:12.646Z,102371.41
2023-01-30T10:37:09.973Z,102378.78
2023-01-30T10:40:15.918Z,102375.56
2023-01-30T10:43:17.105Z,102371.56
2023-01-30T10:46:19.912Z,102369.34
2023-01-30T10:49:19.899Z,102362.94
2023-01-30T10:52:33.992Z,102359.41
2023-01-30T10:55:38.114Z,102368.66
2023-01-30T10:58:40.000Z,102368.97
2023-01-30T11:01:38.702Z,102365.66
2023-01-30T11:04:34.404Z,102355.38
2023-01-30T11:07:23.735Z,102358.75
2023-01-30T11:10:19.621Z,102362.66
2023-01-30T11:13:19.756Z,102355.56
2023-01-30T11:16:11.930Z,102364.91
2023-01-30T11:19:19.735Z,102361.44
2023-01-30T11:22:16.125Z,102345.84
2023-01-30T11:25:16.727Z,102366.38
2023-01-30T11:28:07.939Z,102357.50
2023-01-30T11:31:02.125Z,102360.78
2023-01-30T11:34:04.966Z,102362.97
2023-01-30T11:36:54.438Z,102360.50
2023-01-30T11:39:52.433Z,102369.28
2023-01-30T11:42:47.603Z,102373.47
2023-01-30T11:45:39.865Z,102358.19
2023-01-30T11:49:02.667Z,102370.72
2023-01-30T11:51:47.769Z,102378.72
2023-01-30T11:54:41.051Z,102373.53
2023-01-30T11:57:30.634Z,102368.59
2023-01-30T12:00:23.974Z,102367.53
2023-01-30T12:03:18.287Z,102384.03
2023-01-30T12:06:09.151Z,102382.44
2023-01-30T12:08:59.201Z,102377.25
2023-01-30T12:11:48.533Z,102374.03
2023-01-30T12:14:45.106Z,102375.75
2023-01-30T12:17:45.614Z,102375.25
2023-01-30T12:20:50.804Z,102379.81
2023-01-30T12:23:47.500Z,102371.91
2023-01-30T12:26:45.286Z,102363.03
2023-01-30T12:29:41.052Z,102366.41
2023-01-30T12:32:35.770Z,102357.00
2023-01-30T12:35:38.755Z,102368.88
2023-01-30T12:38:54.799Z,102367.88
2023-01-30T12:42:02.529Z,102383.53
2023-01-30T12:45:15.275Z,102374.28
2023-01-30T12:48:38.273Z,102355.88
2023-01-30T12:51:55.588Z,102357.66
2023-01-30T12:54:58.696Z,102339.59
2023-01-30T12:57:55.439Z,102340.22
2023-01-30T13:01:02.826Z,102342.75
2023-01-30T13:04:03.551Z,102339.50
2023-01-30T13:07:08.164Z,102349.34
2023-01-30T13:10:12.966Z,102354.81
2023-01-30T13:13:16.908Z,102349.06
2023-01-30T13:16:16.189Z,102349.34
2023-01-30T13:19:14.994Z,102341.94
2023-01-30T13:22:13.728Z,102337.84
2023-01-30T13:25:18.796Z,102341.72
2023-01-30T13:28:15.398Z,102339.22
2023-01-30T13:31:09.608Z,102344.16
2023-01-30T13:34:13.292Z,102336.75
2023-01-30T13:37:06.878Z,102334.56
2023-01-30T13:40:00.776Z,102341.97
2023-01-30T13:42:56.307Z,102340.59
2023-01-30T13:45:48.287Z,102320.84
2023-01-30T13:48:50.167Z,102330.72
2023-01-30T13:51:48.270Z,102336.47
2023-01-30T13:54:53.641Z,102346.88
2023-01-30T13:57:50.471Z,102334.84
2023-01-30T14:00:41.254Z,102323.88
2023-01-30T14:03:33.666Z,102313.78
2023-01-30T14:06:37.208Z,102318.16
2023-01-30T14:09:33.342Z,102260.41
2023-01-30T14:12:26.808Z,102305.25
2023-01-30T14:15:29.114Z,102307.72
2023-01-30T14:18:28.119Z,102312.63
2023-01-30T14:21:21.276Z,102303.63
2023-01-30T14:24:23.735Z,102312.94
2023-01-30T14:27:32.166Z,102308.81
2023-01-30T14:30:47.715Z,102306.66
2023-01-30T14:33:50.543Z,102300.34
2023-01-30T14:36:48.213Z,102311.84
2023-01-30T14:39:55.734Z,102294.34
2023-01-30T14:42:45.463Z,102306.66
2023-01-30T14:45:50.198Z,102311.03
2023-01-30T14:48:45.570Z,102313.22
2023-01-30T14:51:38.020Z,102312.13
2023-01-30T14:54:41.761Z,102323.88
2023-01-30T14:57:33.155Z,102323.63
2023-01-30T15:00:29.387Z,102333.50
2023-01-30T15:03:21.427Z,102331.03
2023-01-30T15:06:12.606Z,102327.47
2023-01-30T15:09:03.046Z,102322.25
2023-01-30T15:12:04.922Z,102320.63
2023-01-30T15:15:11.583Z,102316.25
2023-01-30T15:18:41.342Z,102324.44
2023-01-30T15:21:59.459Z,102327.97
2023-01-30T15:25:16.633Z,102330.47
2023-01-30T15:28:21.665Z,102314.03
2023-01-30T15:31:14.733Z,102323.59
2023-01-30T15:34:03.787Z,102314.84
2023-01-30T15:36:54.475Z,102315.66
2023-01-30T15:39:43.619Z,102305.00
2023-01-30T15:42:32.821Z,102321.97
2023-01-30T15:45:41.164Z,102306.09
2023-01-30T15:48:52.961Z,102314.31
2023-01-30T15:51:42.383Z,102315.41
2023-01-30T15:54:33.217Z,102306.34
2023-01-30T15:57:29.422Z,102297.06
2023-01-30T16:00:28.696Z,102296.78
2023-01-30T16:03:22.698Z,102299.78
2023-01-30T16:06:25.829Z,102292.91
2023-01-30T16:09:22.937Z,102289.66
2023-01-30T16:12:27.242Z,102295.69
2023-01-30T16:15:21.342Z,102297.59
2023-01-30T16:18:26.396Z,102300.34
2023-01-30T16:21:20.993Z,102288.84
2023-01-30T16:24:18.302Z,102296.22
2023-01-30T16:27:14.573Z,102289.91
2023-01-30T16:30:09.323Z,102289.09
2023-01-30T16:32:59.262Z,102299.53
2023-01-30T16:35:48.496Z,102293.75
2023-01-30T16:38:43.174Z,102295.94
2023-01-30T16:41:36.276Z,102311.53
2023-01-30T16:44:26.361Z,102286.06
2023-01-30T16:47:26.378Z,102290.13
2023-01-30T16:50:22.298Z,102290.69
2023-01-30T16:53:15.682Z,102290.44
2023-01-30T16:56:11.745Z,102265.78
2023-01-30T16:59:03.613Z,102253.16
2023-01-30T17:01:55.654Z,102288.50
2023-01-30T17:04:46.612Z,102282.19
2023-01-30T17:07:39.110Z,102293.09
2023-01-30T17:10:56.517Z,102290.38
2023-01-30T17:13:45.880Z,102288.19
2023-01-30T17:16:36.008Z,102292.81
2023-01-30T17:19:25.183Z,102289.84
2023-01-30T17:22:24.381Z,102279.41
2023-01-30T17:25:26.937Z,102277.50
2023-01-30T17:28:24.225Z,102286.00
2023-01-30T17:31:14.799Z,102271.50
2023-01-30T17:34:03.993Z,102272.88
2023-01-30T17:36:56.177Z,102269.56
2023-01-30T17:39:47.303Z,102259.22
2023-01-30T17:42:36.492Z,102258.38
2023-01-30T17:45:25.757Z,102238.59
2023-01-30T17:48:15.336Z,102246.88
2023-01-30T17:51:04.656Z,102242.22
2023-01-30T17:53:53.840Z,102245.50
2023-01-30T17:56:48.154Z,102232.41
2023-01-30T17:59:37.689Z,102237.88
2023-01-30T18:02:28.748Z,102235.44
2023-01-30T18:05:18.200Z,102225.59
2023-01-30T18:08:07.576Z,102232.94
2023-01-30T18:10:56.952Z,102228.59
2023-01-30T18:13:48.284Z,102222.88
2023-01-30T18:16:37.778Z,102210.28
2023-01-30T18:19:29.171Z,102215.72
2023-01-30T18:22:18.468Z,102207.00
2023-01-30T18:25:09.253Z,102196.59
2023-01-30T18:27:58.565Z,102196.91
2023-01-30T18:30:49.287Z,102194.16
2023-01-30T18:33:38.628Z,102175.03
2023-01-30T18:36:27.897Z,102172.03
2023-01-30T18:39:17.132Z,102153.41
2023-01-30T18:42:07.888Z,102156.72
2023-01-30T18:44:57.218Z,102157.53
2023-01-30T18:47:48.049Z,102165.19
2023-01-30T18:50:37.643Z,102154.28
2023-01-30T18:53:26.862Z,102158.38
2023-01-30T18:56:20.195Z,102154.28
2023-01-30T18:59:11.927Z,102158.38
2023-01-30T19:02:01.156Z,102171.25
2023-01-30T19:04:51.716Z,102164.69
2023-01-30T19:07:40.989Z,102181.34
2023-01-30T19:10:30.916Z,102167.94
2023-01-30T19:13:34.735Z,102161.63
2023-01-30T19:16:26.510Z,102125.47
2023-01-30T19:19:15.799Z,102169.50
2023-01-30T19:22:06.505Z,102174.44
2023-01-30T19:24:55.883Z,102172.22
2023-01-30T19:27:45.271Z,102169.75
2023-01-30T19:30:34.525Z,102158.59
2023-01-30T19:33:23.751Z,102162.94
2023-01-30T19:36:15.807Z,102152.03
2023-01-30T19:39:07.060Z,102148.19
2023-01-30T19:41:56.317Z,102140.81
2023-01-30T19:44:45.545Z,102141.38
2023-01-30T19:47:34.745Z,102138.91
2023-01-30T19:50:24.171Z,102135.91
2023-01-30T19:53:13.389Z,102132.63
2023-01-30T19:56:05.065Z,102118.97
2023-01-30T19:58:56.216Z,102117.06
2023-01-30T20:01:46.131Z,102118.44
2023-01-30T20:04:35.380Z,102123.06
2023-01-30T20:07:24.700Z,102118.13
2023-01-30T20:10:14.120Z,102114.06
2023-01-30T20:13:05.265Z,102116.78
2023-01-30T20:15:56.695Z,102105.59
2023-01-30T20:18:48.282Z,102111.63
2023-01-30T20:21:37.653Z,102099.63
2023-01-30T20:24:26.909Z,102106.47
2023-01-30T20:27:16.272Z,102093.91
2023-01-30T20:30:09.203Z,102097.72
2023-01-30T20:32:58.414Z,102088.19
2023-01-30T20:35:47.812Z,102086.53
2023-01-30T20:38:40.311Z,102079.97
2023-01-30T20:41:30.218Z,102061.38
2023-01-30T20:44:20.593Z,102068.78
2023-01-30T20:47:11.209Z,102063.56
2023-01-30T20:50:00.541Z,102044.72
2023-01-30T20:52:51.606Z,102051.56
2023-01-30T20:55:40.865Z,102042.78
2023-01-30T20:58:30.902Z,102028.56
2023-01-30T21:01:23.222Z,102045.78
2023-01-30T21:04:16.672Z,102037.31
2023-01-30T21:07:06.170Z,102050.97
2023-01-30T21:09:55.533Z,102027.50
2023-01-30T21:12:44.792Z,102050.16
2023-01-30T21:15:34.453Z,102053.16
2023-01-30T21:18:23.786Z,102040.59
2023-01-30T21:21:21.221Z,102031.31
2023-01-30T21:24:15.492Z,102045.53
2023-01-30T21:27:05.768Z,102040.31
2023-01-30T21:29:55.121Z,102046.06
2023-01-30T21:32:44.387Z,102030.19
2023-01-30T21:35:34.084Z,102010.25
2023-01-30T21:38:41.903Z,102032.91
2023-01-30T21:42:00.856Z,102019.47
2023-01-30T21:44:50.179Z,102004.94
2023-01-30T21:47:39.910Z,102008.53
2023-01-30T21:50:29.673Z,102002.53
2023-01-30T21:53:19.272Z,102011.56
2023-01-30T21:56:10.708Z,102005.56
2023-01-30T21:59:00.953Z,102007.22
2023-01-30T22:01:50.410Z,101998.50
2023-01-30T22:04:40.029Z,102004.50
2023-01-30T22:07:29.331Z,101976.84
2023-01-30T22:10:18.892Z,101997.91
2023-01-30T22:13:10.037Z,101980.38
2023-01-30T22:16:04.400Z,101965.13
2023-01-30T22:18:55.798Z,101964.31
2023-01-30T22:21:45.329Z,101973.03
2023-01-30T22:24:34.695Z,101948.50
2023-01-30T22:27:23.931Z,101950.97
2023-01-30T22:30:20.392Z,101977.69
2023-01-30T22:33:09.779Z,101947.94
2023-01-30T22:35:59.592Z,101966.75
2023-01-30T22:38:50.642Z,101942.72
2023-01-30T22:41:40.008Z,101965.13
2023-01-30T22:44:29.405Z,101967.84
2023-01-30T22:47:20.023Z,101965.94
2023-01-30T22:50:10.929Z,101957.50
2023-01-30T22:53:00.167Z,101943.25
2023-01-30T22:55:49.415Z,101944.63
2023-01-30T22:58:39.474Z,101962.38
2023-01-30T23:01:31.013Z,101934.00
2023-01-30T23:04:24.225Z,101921.41
2023-01-30T23:07:16.306Z,101953.13
2023-01-30T23:10:06.611Z,101958.53
2023-01-30T23:13:07.733Z,101935.28
2023-01-30T23:16:01.461Z,101945.38
2023-01-30T23:18:56.722Z,101936.59
2023-01-30T23:21:47.930Z,101907.97
2023-01-30T23:24:37.793Z,101926.88
2023-01-30T23:27:27.099Z,101932.25
2023-01-30T23:30:16.798Z,101930.03
2023-01-30T23:33:06.471Z,101917.47
2023-01-30T23:35:55.833Z,101914.19
2023-01-30T23:38:50.240Z,101927.31
2023-01-30T23:41:39.938Z,101899.44
2023-01-30T23:44:29.245Z,101928.97
2023-01-30T23:47:18.585Z,101890.72
2023-01-30T23:50:08.549Z,101897.22
2023-01-30T23:52:57.834Z,101893.16
2023-01-30T23:55:54.100Z,101910.06
2023-01-30T23:58:44.672Z,101878.13
